sensor_id;sensor_type;location;lat;lon;timestamp;temperature;humidity
33863;DHT22;20158;51.436;-2.742;2023-04-15T00:01:26;7.70;56.90
33863;DHT22;20158;51.436;-2.742;2023-04-15T00:03:53;7.70;56.90
33863;DHT22;20158;51.436;-2.742;2023-04-15T00:06:20;7.70;56.90
33863;DHT22;20158;51.436;-2.742;2023-04-15T00:08:48;7.70;56.90
33863;DHT22;20158;51.436;-2.742;2023-04-15T00:11:14;7.70;56.90
33863;DHT22;20158;51.436;-2.742;2023-04-15T00:13:40;7.70;56.90
33863;DHT22;20158;51.436;-2.742;2023-04-15T00:16:07;7.60;56.80
33863;DHT22;20158;51.436;-2.742;2023-04-15T00:18:34;7.60;56.80
33863;DHT22;20158;51.436;-2.742;2023-04-15T00:21:00;7.60;56.80
33863;DHT22;20158;51.436;-2.742;2023-04-15T00:23:27;7.60;56.80
33863;DHT22;20158;51.436;-2.742;2023-04-15T00:25:54;7.60;56.80
33863;DHT22;20158;51.436;-2.742;2023-04-15T00:28:20;7.60;56.80
33863;DHT22;20158;51.436;-2.742;2023-04-15T00:30:47;7.60;56.90
33863;DHT22;20158;51.436;-2.742;2023-04-15T00:33:13;7.60;56.90
33863;DHT22;20158;51.436;-2.742;2023-04-15T00:35:41;7.60;57.00
33863;DHT22;20158;51.436;-2.742;2023-04-15T00:38:07;7.50;56.80
33863;DHT22;20158;51.436;-2.742;2023-04-15T00:40:34;7.50;56.80
33863;DHT22;20158;51.436;-2.742;2023-04-15T00:43:00;7.50;56.90
33863;DHT22;20158;51.436;-2.742;2023-04-15T00:45:26;7.50;56.90
33863;DHT22;20158;51.436;-2.742;2023-04-15T00:47:57;7.50;56.90
33863;DHT22;20158;51.436;-2.742;2023-04-15T00:50:24;7.50;57.00
33863;DHT22;20158;51.436;-2.742;2023-04-15T00:52:50;7.50;57.00
33863;DHT22;20158;51.436;-2.742;2023-04-15T00:55:17;7.50;57.00
33863;DHT22;20158;51.436;-2.742;2023-04-15T00:57:43;7.40;56.90
33863;DHT22;20158;51.436;-2.742;2023-04-15T01:00:10;7.40;56.90
33863;DHT22;20158;51.436;-2.742;2023-04-15T01:02:36;7.40;56.90
33863;DHT22;20158;51.436;-2.742;2023-04-15T01:05:04;7.40;56.90
33863;DHT22;20158;51.436;-2.742;2023-04-15T01:07:32;7.40;56.90
33863;DHT22;20158;51.436;-2.742;2023-04-15T01:09:58;7.40;56.90
33863;DHT22;20158;51.436;-2.742;2023-04-15T01:12:25;7.40;57.00
33863;DHT22;20158;51.436;-2.742;2023-04-15T01:14:55;7.40;57.00
33863;DHT22;20158;51.436;-2.742;2023-04-15T01:17:23;7.30;56.90
33863;DHT22;20158;51.436;-2.742;2023-04-15T01:19:49;7.30;56.90
33863;DHT22;20158;51.436;-2.742;2023-04-15T01:22:17;7.30;57.00
33863;DHT22;20158;51.436;-2.742;2023-04-15T01:24:50;7.30;57.00
33863;DHT22;20158;51.436;-2.742;2023-04-15T01:27:20;7.30;57.10
33863;DHT22;20158;51.436;-2.742;2023-04-15T01:29:46;7.30;57.00
33863;DHT22;20158;51.436;-2.742;2023-04-15T01:32:13;7.30;57.60
33863;DHT22;20158;51.436;-2.742;2023-04-15T01:34:38;7.30;57.10
33863;DHT22;20158;51.436;-2.742;2023-04-15T01:37:04;7.30;57.10
33863;DHT22;20158;51.436;-2.742;2023-04-15T01:39:30;7.30;57.10
33863;DHT22;20158;51.436;-2.742;2023-04-15T01:41:56;7.30;57.10
33863;DHT22;20158;51.436;-2.742;2023-04-15T01:44:23;7.30;57.20
33863;DHT22;20158;51.436;-2.742;2023-04-15T01:46:49;7.30;57.10
33863;DHT22;20158;51.436;-2.742;2023-04-15T01:49:15;7.30;57.20
33863;DHT22;20158;51.436;-2.742;2023-04-15T01:51:41;7.20;57.10
33863;DHT22;20158;51.436;-2.742;2023-04-15T01:54:07;7.30;57.20
33863;DHT22;20158;51.436;-2.742;2023-04-15T01:56:33;7.30;57.30
33863;DHT22;20158;51.436;-2.742;2023-04-15T01:58:59;7.30;57.30
33863;DHT22;20158;51.436;-2.742;2023-04-15T02:01:26;7.30;57.30
33863;DHT22;20158;51.436;-2.742;2023-04-15T02:03:53;7.20;57.10
33863;DHT22;20158;51.436;-2.742;2023-04-15T02:06:20;7.30;57.40
33863;DHT22;20158;51.436;-2.742;2023-04-15T02:08:47;7.20;57.20
33863;DHT22;20158;51.436;-2.742;2023-04-15T02:11:13;7.30;57.50
33863;DHT22;20158;51.436;-2.742;2023-04-15T02:13:39;7.30;57.40
33863;DHT22;20158;51.436;-2.742;2023-04-15T02:16:15;7.20;57.20
33863;DHT22;20158;51.436;-2.742;2023-04-15T02:18:45;7.30;57.50
33863;DHT22;20158;51.436;-2.742;2023-04-15T02:21:12;7.20;57.30
33863;DHT22;20158;51.436;-2.742;2023-04-15T02:23:38;7.20;57.20
33863;DHT22;20158;51.436;-2.742;2023-04-15T02:26:04;7.20;57.30
33863;DHT22;20158;51.436;-2.742;2023-04-15T02:28:30;7.20;57.30
33863;DHT22;20158;51.436;-2.742;2023-04-15T02:30:56;7.10;57.20
33863;DHT22;20158;51.436;-2.742;2023-04-15T02:33:24;7.10;57.20
33863;DHT22;20158;51.436;-2.742;2023-04-15T02:35:50;7.10;57.20
33863;DHT22;20158;51.436;-2.742;2023-04-15T02:38:16;7.10;57.20
33863;DHT22;20158;51.436;-2.742;2023-04-15T02:40:42;7.10;57.20
33863;DHT22;20158;51.436;-2.742;2023-04-15T02:43:11;7.00;57.10
33863;DHT22;20158;51.436;-2.742;2023-04-15T02:45:37;7.00;57.10
33863;DHT22;20158;51.436;-2.742;2023-04-15T02:48:04;7.00;57.20
33863;DHT22;20158;51.436;-2.742;2023-04-15T02:50:31;7.00;57.20
33863;DHT22;20158;51.436;-2.742;2023-04-15T02:52:57;6.90;57.10
33863;DHT22;20158;51.436;-2.742;2023-04-15T02:55:22;6.90;57.10
33863;DHT22;20158;51.436;-2.742;2023-04-15T02:57:49;6.90;57.10
33863;DHT22;20158;51.436;-2.742;2023-04-15T03:00:15;6.90;57.20
33863;DHT22;20158;51.436;-2.742;2023-04-15T03:02:44;6.90;57.20
33863;DHT22;20158;51.436;-2.742;2023-04-15T03:05:12;6.90;57.20
33863;DHT22;20158;51.436;-2.742;2023-04-15T03:07:40;6.90;57.20
33863;DHT22;20158;51.436;-2.742;2023-04-15T03:10:07;6.90;57.20
33863;DHT22;20158;51.436;-2.742;2023-04-15T03:12:35;6.90;57.20
33863;DHT22;20158;51.436;-2.742;2023-04-15T03:15:03;6.80;57.10
33863;DHT22;20158;51.436;-2.742;2023-04-15T03:17:36;6.80;57.10
33863;DHT22;20158;51.436;-2.742;2023-04-15T03:20:04;6.80;57.10
33863;DHT22;20158;51.436;-2.742;2023-04-15T03:22:32;6.80;56.90
33863;DHT22;20158;51.436;-2.742;2023-04-15T03:24:58;6.70;56.80
33863;DHT22;20158;51.436;-2.742;2023-04-15T03:27:24;6.70;56.80
33863;DHT22;20158;51.436;-2.742;2023-04-15T03:29:53;6.70;56.90
33863;DHT22;20158;51.436;-2.742;2023-04-15T03:32:23;6.70;56.90
33863;DHT22;20158;51.436;-2.742;2023-04-15T03:34:49;6.60;56.80
33863;DHT22;20158;51.436;-2.742;2023-04-15T03:37:15;6.60;56.80
33863;DHT22;20158;51.436;-2.742;2023-04-15T03:39:41;6.60;56.80
33863;DHT22;20158;51.436;-2.742;2023-04-15T03:42:07;6.50;56.60
33863;DHT22;20158;51.436;-2.742;2023-04-15T03:44:32;6.50;56.70
33863;DHT22;20158;51.436;-2.742;2023-04-15T03:46:58;6.50;56.70
33863;DHT22;20158;51.436;-2.742;2023-04-15T03:49:24;6.50;56.70
33863;DHT22;20158;51.436;-2.742;2023-04-15T03:51:50;6.50;56.80
33863;DHT22;20158;51.436;-2.742;2023-04-15T03:54:17;6.40;56.60
33863;DHT22;20158;51.436;-2.742;2023-04-15T03:56:45;6.40;56.60
33863;DHT22;20158;51.436;-2.742;2023-04-15T03:59:11;6.30;57.00
33863;DHT22;20158;51.436;-2.742;2023-04-15T04:01:37;6.30;56.50
33863;DHT22;20158;51.436;-2.742;2023-04-15T04:04:03;6.30;56.50
33863;DHT22;20158;51.436;-2.742;2023-04-15T04:06:29;6.30;56.60
33863;DHT22;20158;51.436;-2.742;2023-04-15T04:08:55;6.30;56.60
33863;DHT22;20158;51.436;-2.742;2023-04-15T04:11:22;6.30;56.60
33863;DHT22;20158;51.436;-2.742;2023-04-15T04:13:48;6.20;56.50
33863;DHT22;20158;51.436;-2.742;2023-04-15T04:16:15;6.20;56.50
33863;DHT22;20158;51.436;-2.742;2023-04-15T04:18:41;6.20;56.50
33863;DHT22;20158;51.436;-2.742;2023-04-15T04:21:06;6.20;56.50
33863;DHT22;20158;51.436;-2.742;2023-04-15T04:23:32;6.20;56.50
33863;DHT22;20158;51.436;-2.742;2023-04-15T04:25:58;6.20;56.50
33863;DHT22;20158;51.436;-2.742;2023-04-15T04:28:24;6.20;56.50
33863;DHT22;20158;51.436;-2.742;2023-04-15T04:30:50;6.20;56.50
33863;DHT22;20158;51.436;-2.742;2023-04-15T04:33:16;6.20;56.50
33863;DHT22;20158;51.436;-2.742;2023-04-15T04:35:43;6.20;56.60
33863;DHT22;20158;51.436;-2.742;2023-04-15T04:38:09;6.20;56.50
33863;DHT22;20158;51.436;-2.742;2023-04-15T04:40:35;6.20;56.50
33863;DHT22;20158;51.436;-2.742;2023-04-15T04:43:02;6.20;56.60
33863;DHT22;20158;51.436;-2.742;2023-04-15T04:45:28;6.20;56.60
33863;DHT22;20158;51.436;-2.742;2023-04-15T04:47:56;6.20;56.60
33863;DHT22;20158;51.436;-2.742;2023-04-15T04:50:23;6.10;56.50
33863;DHT22;20158;51.436;-2.742;2023-04-15T04:52:49;6.10;56.50
33863;DHT22;20158;51.436;-2.742;2023-04-15T04:55:15;6.10;56.50
33863;DHT22;20158;51.436;-2.742;2023-04-15T04:57:41;6.10;56.50
33863;DHT22;20158;51.436;-2.742;2023-04-15T05:00:07;6.00;56.40
33863;DHT22;20158;51.436;-2.742;2023-04-15T05:02:34;6.00;56.40
33863;DHT22;20158;51.436;-2.742;2023-04-15T05:05:00;6.00;56.50
33863;DHT22;20158;51.436;-2.742;2023-04-15T05:07:26;6.00;56.40
33863;DHT22;20158;51.436;-2.742;2023-04-15T05:09:52;5.90;56.30
33863;DHT22;20158;51.436;-2.742;2023-04-15T05:12:18;5.90;56.30
33863;DHT22;20158;51.436;-2.742;2023-04-15T05:14:44;5.90;56.30
33863;DHT22;20158;51.436;-2.742;2023-04-15T05:17:11;5.90;56.40
33863;DHT22;20158;51.436;-2.742;2023-04-15T05:19:37;5.90;56.40
33863;DHT22;20158;51.436;-2.742;2023-04-15T05:22:03;5.90;56.40
33863;DHT22;20158;51.436;-2.742;2023-04-15T05:24:29;5.80;56.20
33863;DHT22;20158;51.436;-2.742;2023-04-15T05:26:55;5.80;56.20
33863;DHT22;20158;51.436;-2.742;2023-04-15T05:29:21;5.80;56.20
33863;DHT22;20158;51.436;-2.742;2023-04-15T05:31:47;5.70;56.00
33863;DHT22;20158;51.436;-2.742;2023-04-15T05:34:13;5.70;56.00
33863;DHT22;20158;51.436;-2.742;2023-04-15T05:36:41;5.70;56.00
33863;DHT22;20158;51.436;-2.742;2023-04-15T05:39:07;5.70;56.00
33863;DHT22;20158;51.436;-2.742;2023-04-15T05:41:33;5.70;56.00
33863;DHT22;20158;51.436;-2.742;2023-04-15T05:43:59;5.70;56.00
33863;DHT22;20158;51.436;-2.742;2023-04-15T05:46:25;5.70;56.00
33863;DHT22;20158;51.436;-2.742;2023-04-15T05:48:52;5.70;56.00
33863;DHT22;20158;51.436;-2.742;2023-04-15T05:51:17;5.70;56.00
33863;DHT22;20158;51.436;-2.742;2023-04-15T05:53:43;5.70;56.00
33863;DHT22;20158;51.436;-2.742;2023-04-15T05:56:10;5.70;55.90
33863;DHT22;20158;51.436;-2.742;2023-04-15T05:58:36;5.70;55.90
33863;DHT22;20158;51.436;-2.742;2023-04-15T06:01:02;5.80;56.00
33863;DHT22;20158;51.436;-2.742;2023-04-15T06:03:28;5.80;56.00
33863;DHT22;20158;51.436;-2.742;2023-04-15T06:05:55;5.90;56.10
33863;DHT22;20158;51.436;-2.742;2023-04-15T06:08:21;6.00;56.20
33863;DHT22;20158;51.436;-2.742;2023-04-15T06:10:47;6.00;56.10
33863;DHT22;20158;51.436;-2.742;2023-04-15T06:13:13;6.10;56.20
33863;DHT22;20158;51.436;-2.742;2023-04-15T06:15:39;6.20;56.30
33863;DHT22;20158;51.436;-2.742;2023-04-15T06:18:04;6.50;57.10
33863;DHT22;20158;51.436;-2.742;2023-04-15T06:20:30;6.70;57.50
33863;DHT22;20158;51.436;-2.742;2023-04-15T06:22:56;6.90;57.90
33863;DHT22;20158;51.436;-2.742;2023-04-15T06:25:22;7.30;58.60
33863;DHT22;20158;51.436;-2.742;2023-04-15T06:27:48;7.60;59.00
33863;DHT22;20158;51.436;-2.742;2023-04-15T06:30:15;8.10;59.80
33863;DHT22;20158;51.436;-2.742;2023-04-15T06:32:41;8.70;60.40
33863;DHT22;20158;51.436;-2.742;2023-04-15T06:35:07;9.30;60.80
33863;DHT22;20158;51.436;-2.742;2023-04-15T06:37:33;9.80;60.80
33863;DHT22;20158;51.436;-2.742;2023-04-15T06:39:59;10.30;60.80
33863;DHT22;20158;51.436;-2.742;2023-04-15T06:42:25;10.70;60.70
33863;DHT22;20158;51.436;-2.742;2023-04-15T06:44:51;11.10;60.50
33863;DHT22;20158;51.436;-2.742;2023-04-15T06:47:16;11.20;59.80
33863;DHT22;20158;51.436;-2.742;2023-04-15T06:49:42;11.20;59.30
33863;DHT22;20158;51.436;-2.742;2023-04-15T06:52:09;11.10;58.70
33863;DHT22;20158;51.436;-2.742;2023-04-15T06:54:36;11.00;58.40
33863;DHT22;20158;51.436;-2.742;2023-04-15T06:57:02;10.80;58.10
33863;DHT22;20158;51.436;-2.742;2023-04-15T06:59:28;10.60;57.90
33863;DHT22;20158;51.436;-2.742;2023-04-15T07:01:54;10.50;57.90
33863;DHT22;20158;51.436;-2.742;2023-04-15T07:04:20;10.30;57.70
33863;DHT22;20158;51.436;-2.742;2023-04-15T07:06:46;10.20;57.70
33863;DHT22;20158;51.436;-2.742;2023-04-15T07:09:11;10.10;57.60
33863;DHT22;20158;51.436;-2.742;2023-04-15T07:11:38;10.00;57.50
33863;DHT22;20158;51.436;-2.742;2023-04-15T07:14:03;9.90;57.40
33863;DHT22;20158;51.436;-2.742;2023-04-15T07:16:29;9.90;57.40
33863;DHT22;20158;51.436;-2.742;2023-04-15T07:18:56;9.90;57.40
33863;DHT22;20158;51.436;-2.742;2023-04-15T07:21:22;9.90;57.30
33863;DHT22;20158;51.436;-2.742;2023-04-15T07:23:48;10.00;57.30
33863;DHT22;20158;51.436;-2.742;2023-04-15T07:26:14;10.00;57.10
33863;DHT22;20158;51.436;-2.742;2023-04-15T07:28:40;10.10;57.20
33863;DHT22;20158;51.436;-2.742;2023-04-15T07:31:06;10.20;57.10
33863;DHT22;20158;51.436;-2.742;2023-04-15T07:33:32;10.30;57.10
33863;DHT22;20158;51.436;-2.742;2023-04-15T07:35:57;10.30;57.00
33863;DHT22;20158;51.436;-2.742;2023-04-15T07:38:24;10.40;57.20
33863;DHT22;20158;51.436;-2.742;2023-04-15T07:40:50;10.60;58.10
33863;DHT22;20158;51.436;-2.742;2023-04-15T07:43:16;10.90;58.70
33863;DHT22;20158;51.436;-2.742;2023-04-15T07:45:43;11.10;58.80
33863;DHT22;20158;51.436;-2.742;2023-04-15T07:48:09;11.40;59.00
33863;DHT22;20158;51.436;-2.742;2023-04-15T07:50:35;11.60;59.20
33863;DHT22;20158;51.436;-2.742;2023-04-15T07:53:01;11.70;59.20
33863;DHT22;20158;51.436;-2.742;2023-04-15T07:55:27;11.90;59.50
33863;DHT22;20158;51.436;-2.742;2023-04-15T07:57:56;12.10;60.10
33863;DHT22;20158;51.436;-2.742;2023-04-15T08:00:22;12.40;60.40
33863;DHT22;20158;51.436;-2.742;2023-04-15T08:02:49;12.70;60.60
33863;DHT22;20158;51.436;-2.742;2023-04-15T08:05:17;13.00;60.60
33863;DHT22;20158;51.436;-2.742;2023-04-15T08:07:44;13.20;60.50
33863;DHT22;20158;51.436;-2.742;2023-04-15T08:10:11;13.20;60.20
33863;DHT22;20158;51.436;-2.742;2023-04-15T08:12:37;13.30;60.20
33863;DHT22;20158;51.436;-2.742;2023-04-15T08:15:03;13.30;60.10
33863;DHT22;20158;51.436;-2.742;2023-04-15T08:17:29;13.30;60.10
33863;DHT22;20158;51.436;-2.742;2023-04-15T08:19:55;13.40;60.30
33863;DHT22;20158;51.436;-2.742;2023-04-15T08:22:21;13.50;60.20
33863;DHT22;20158;51.436;-2.742;2023-04-15T08:24:47;13.50;60.00
33863;DHT22;20158;51.436;-2.742;2023-04-15T08:27:13;13.50;60.50
33863;DHT22;20158;51.436;-2.742;2023-04-15T08:29:39;13.50;60.00
33863;DHT22;20158;51.436;-2.742;2023-04-15T08:32:05;13.40;59.90
33863;DHT22;20158;51.436;-2.742;2023-04-15T08:34:38;13.40;60.40
33863;DHT22;20158;51.436;-2.742;2023-04-15T08:37:04;13.50;60.90
33863;DHT22;20158;51.436;-2.742;2023-04-15T08:39:31;13.70;61.20
33863;DHT22;20158;51.436;-2.742;2023-04-15T08:42:00;13.90;61.40
33863;DHT22;20158;51.436;-2.742;2023-04-15T08:44:32;14.10;61.50
33863;DHT22;20158;51.436;-2.742;2023-04-15T08:47:02;14.30;61.50
33863;DHT22;20158;51.436;-2.742;2023-04-15T08:49:31;14.50;61.40
33863;DHT22;20158;51.436;-2.742;2023-04-15T08:51:59;14.70;61.30
33863;DHT22;20158;51.436;-2.742;2023-04-15T08:54:26;14.90;61.30
33863;DHT22;20158;51.436;-2.742;2023-04-15T08:56:53;15.10;61.20
33863;DHT22;20158;51.436;-2.742;2023-04-15T08:59:20;15.30;61.10
33863;DHT22;20158;51.436;-2.742;2023-04-15T09:01:48;15.40;61.00
33863;DHT22;20158;51.436;-2.742;2023-04-15T09:04:15;15.60;61.00
33863;DHT22;20158;51.436;-2.742;2023-04-15T09:06:41;15.70;60.80
33863;DHT22;20158;51.436;-2.742;2023-04-15T09:09:07;15.80;60.70
33863;DHT22;20158;51.436;-2.742;2023-04-15T09:11:34;15.90;60.60
33863;DHT22;20158;51.436;-2.742;2023-04-15T09:14:00;16.00;60.50
33863;DHT22;20158;51.436;-2.742;2023-04-15T09:16:27;16.10;60.40
33863;DHT22;20158;51.436;-2.742;2023-04-15T09:18:53;16.20;60.30
33863;DHT22;20158;51.436;-2.742;2023-04-15T09:21:19;16.30;60.20
33863;DHT22;20158;51.436;-2.742;2023-04-15T09:23:57;16.40;60.70
33863;DHT22;20158;51.436;-2.742;2023-04-15T09:26:43;16.50;60.10
33863;DHT22;20158;51.436;-2.742;2023-04-15T09:29:10;16.60;59.80
33863;DHT22;20158;51.436;-2.742;2023-04-15T09:31:40;16.70;59.90
33863;DHT22;20158;51.436;-2.742;2023-04-15T09:34:06;16.80;59.80
33863;DHT22;20158;51.436;-2.742;2023-04-15T09:36:51;16.80;59.60
33863;DHT22;20158;51.436;-2.742;2023-04-15T09:39:18;16.90;59.50
33863;DHT22;20158;51.436;-2.742;2023-04-15T09:41:43;17.00;59.50
33863;DHT22;20158;51.436;-2.742;2023-04-15T09:44:26;17.00;59.20
33863;DHT22;20158;51.436;-2.742;2023-04-15T09:46:54;16.90;58.40
33863;DHT22;20158;51.436;-2.742;2023-04-15T09:49:20;16.90;58.50
33863;DHT22;20158;51.436;-2.742;2023-04-15T09:51:46;16.80;58.20
33863;DHT22;20158;51.436;-2.742;2023-04-15T09:54:18;16.70;58.10
33863;DHT22;20158;51.436;-2.742;2023-04-15T09:56:45;16.50;57.70
33863;DHT22;20158;51.436;-2.742;2023-04-15T09:59:11;16.40;57.50
33863;DHT22;20158;51.436;-2.742;2023-04-15T10:01:39;16.30;57.30
33863;DHT22;20158;51.436;-2.742;2023-04-15T10:04:08;16.30;57.20
33863;DHT22;20158;51.436;-2.742;2023-04-15T10:06:34;16.30;57.10
33863;DHT22;20158;51.436;-2.742;2023-04-15T10:09:01;16.30;56.70
33863;DHT22;20158;51.436;-2.742;2023-04-15T10:11:28;16.40;56.60
33863;DHT22;20158;51.436;-2.742;2023-04-15T10:13:55;16.40;56.30
33863;DHT22;20158;51.436;-2.742;2023-04-15T10:16:25;16.40;56.10
33863;DHT22;20158;51.436;-2.742;2023-04-15T10:18:56;16.50;56.00
33863;DHT22;20158;51.436;-2.742;2023-04-15T10:21:22;16.50;55.80
33863;DHT22;20158;51.436;-2.742;2023-04-15T10:23:49;16.60;55.70
33863;DHT22;20158;51.436;-2.742;2023-04-15T10:26:15;16.70;55.50
33863;DHT22;20158;51.436;-2.742;2023-04-15T10:28:44;16.70;55.20
33863;DHT22;20158;51.436;-2.742;2023-04-15T10:31:12;16.80;55.60
33863;DHT22;20158;51.436;-2.742;2023-04-15T10:33:41;16.90;56.10
33863;DHT22;20158;51.436;-2.742;2023-04-15T10:36:07;17.00;56.50
33863;DHT22;20158;51.436;-2.742;2023-04-15T10:38:41;17.10;56.60
33863;DHT22;20158;51.436;-2.742;2023-04-15T10:46:38;17.60;56.80
33863;DHT22;20158;51.436;-2.742;2023-04-15T10:49:16;17.70;56.80
33863;DHT22;20158;51.436;-2.742;2023-04-15T10:51:56;17.80;56.80
33863;DHT22;20158;51.436;-2.742;2023-04-15T10:59:29;18.00;56.80
33863;DHT22;20158;51.436;-2.742;2023-04-15T11:02:00;18.10;56.90
33863;DHT22;20158;51.436;-2.742;2023-04-15T11:04:54;18.20;56.90
33863;DHT22;20158;51.436;-2.742;2023-04-15T11:12:59;18.40;56.50
33863;DHT22;20158;51.436;-2.742;2023-04-15T11:15:32;18.50;56.70
33863;DHT22;20158;51.436;-2.742;2023-04-15T11:20:43;18.80;57.00
33863;DHT22;20158;51.436;-2.742;2023-04-15T11:23:13;18.90;56.70
33863;DHT22;20158;51.436;-2.742;2023-04-15T11:25:40;18.90;56.30
33863;DHT22;20158;51.436;-2.742;2023-04-15T11:28:07;18.80;55.90
33863;DHT22;20158;51.436;-2.742;2023-04-15T11:30:35;18.80;55.70
33863;DHT22;20158;51.436;-2.742;2023-04-15T11:33:04;18.80;55.40
33863;DHT22;20158;51.436;-2.742;2023-04-15T11:35:30;18.80;54.90
33863;DHT22;20158;51.436;-2.742;2023-04-15T11:37:56;18.90;54.60
33863;DHT22;20158;51.436;-2.742;2023-04-15T11:40:28;18.80;54.00
33863;DHT22;20158;51.436;-2.742;2023-04-15T11:43:08;18.80;53.70
33863;DHT22;20158;51.436;-2.742;2023-04-15T11:45:35;18.70;53.20
33863;DHT22;20158;51.436;-2.742;2023-04-15T11:48:06;18.70;53.20
33863;DHT22;20158;51.436;-2.742;2023-04-15T11:50:33;18.70;52.90
33863;DHT22;20158;51.436;-2.742;2023-04-15T11:53:02;18.80;52.80
33863;DHT22;20158;51.436;-2.742;2023-04-15T11:55:29;18.80;52.50
33863;DHT22;20158;51.436;-2.742;2023-04-15T11:58:24;18.70;52.20
33863;DHT22;20158;51.436;-2.742;2023-04-15T12:00:53;18.70;51.70
33863;DHT22;20158;51.436;-2.742;2023-04-15T12:03:26;18.60;52.50
33863;DHT22;20158;51.436;-2.742;2023-04-15T12:06:22;18.70;51.90
33863;DHT22;20158;51.436;-2.742;2023-04-15T12:11:45;18.80;51.50
33863;DHT22;20158;51.436;-2.742;2023-04-15T12:16:43;19.00;51.30
33863;DHT22;20158;51.436;-2.742;2023-04-15T12:19:21;19.10;51.10
33863;DHT22;20158;51.436;-2.742;2023-04-15T12:21:48;19.20;50.80
33863;DHT22;20158;51.436;-2.742;2023-04-15T12:24:14;19.30;50.90
33863;DHT22;20158;51.436;-2.742;2023-04-15T12:26:46;19.30;50.90
33863;DHT22;20158;51.436;-2.742;2023-04-15T12:29:14;19.30;51.00
33863;DHT22;20158;51.436;-2.742;2023-04-15T12:34:24;19.20;50.90
33863;DHT22;20158;51.436;-2.742;2023-04-15T12:36:51;19.10;50.60
33863;DHT22;20158;51.436;-2.742;2023-04-15T12:39:24;19.00;50.00
33863;DHT22;20158;51.436;-2.742;2023-04-15T12:41:51;18.90;49.20
33863;DHT22;20158;51.436;-2.742;2023-04-15T12:44:17;18.80;48.80
33863;DHT22;20158;51.436;-2.742;2023-04-15T12:46:43;18.80;48.40
33863;DHT22;20158;51.436;-2.742;2023-04-15T12:49:12;18.70;48.00
33863;DHT22;20158;51.436;-2.742;2023-04-15T12:51:39;18.70;47.80
33863;DHT22;20158;51.436;-2.742;2023-04-15T12:54:05;18.70;47.50
33863;DHT22;20158;51.436;-2.742;2023-04-15T12:56:31;18.60;47.00
33863;DHT22;20158;51.436;-2.742;2023-04-15T12:58:57;18.60;46.70
33863;DHT22;20158;51.436;-2.742;2023-04-15T13:01:23;18.60;46.40
33863;DHT22;20158;51.436;-2.742;2023-04-15T13:03:51;18.60;46.30
33863;DHT22;20158;51.436;-2.742;2023-04-15T13:06:17;18.50;45.90
33863;DHT22;20158;51.436;-2.742;2023-04-15T13:08:43;18.50;45.90
33863;DHT22;20158;51.436;-2.742;2023-04-15T13:11:09;18.50;45.70
33863;DHT22;20158;51.436;-2.742;2023-04-15T13:13:35;18.50;45.60
33863;DHT22;20158;51.436;-2.742;2023-04-15T13:16:01;18.50;45.30
33863;DHT22;20158;51.436;-2.742;2023-04-15T13:18:27;18.50;45.10
33863;DHT22;20158;51.436;-2.742;2023-04-15T13:20:53;18.50;44.80
33863;DHT22;20158;51.436;-2.742;2023-04-15T13:23:20;18.60;44.70
33863;DHT22;20158;51.436;-2.742;2023-04-15T13:25:46;18.70;44.60
33863;DHT22;20158;51.436;-2.742;2023-04-15T13:28:12;18.80;44.50
33863;DHT22;20158;51.436;-2.742;2023-04-15T13:30:38;18.90;44.30
33863;DHT22;20158;51.436;-2.742;2023-04-15T13:33:04;18.90;44.10
33863;DHT22;20158;51.436;-2.742;2023-04-15T13:35:33;19.00;44.00
33863;DHT22;20158;51.436;-2.742;2023-04-15T13:37:59;19.10;43.90
33863;DHT22;20158;51.436;-2.742;2023-04-15T13:40:26;19.10;43.70
33863;DHT22;20158;51.436;-2.742;2023-04-15T13:42:52;19.30;43.70
33863;DHT22;20158;51.436;-2.742;2023-04-15T13:45:18;19.40;43.30
33863;DHT22;20158;51.436;-2.742;2023-04-15T13:47:44;19.60;43.50
33863;DHT22;20158;51.436;-2.742;2023-04-15T13:50:10;19.70;43.60
33863;DHT22;20158;51.436;-2.742;2023-04-15T13:52:36;20.00;43.40
33863;DHT22;20158;51.436;-2.742;2023-04-15T13:55:03;20.20;43.30
33863;DHT22;20158;51.436;-2.742;2023-04-15T13:57:30;20.30;43.00
33863;DHT22;20158;51.436;-2.742;2023-04-15T13:59:57;20.30;42.90
33863;DHT22;20158;51.436;-2.742;2023-04-15T14:02:24;20.30;42.70
33863;DHT22;20158;51.436;-2.742;2023-04-15T14:04:50;20.30;42.60
33863;DHT22;20158;51.436;-2.742;2023-04-15T14:07:16;20.50;42.70
33863;DHT22;20158;51.436;-2.742;2023-04-15T14:09:42;20.60;42.60
33863;DHT22;20158;51.436;-2.742;2023-04-15T14:12:09;20.80;42.60
33863;DHT22;20158;51.436;-2.742;2023-04-15T14:14:35;20.80;42.40
33863;DHT22;20158;51.436;-2.742;2023-04-15T14:17:02;21.00;42.50
33863;DHT22;20158;51.436;-2.742;2023-04-15T14:19:29;21.00;42.10
33863;DHT22;20158;51.436;-2.742;2023-04-15T14:21:56;21.10;42.10
33863;DHT22;20158;51.436;-2.742;2023-04-15T14:24:22;21.20;42.10
33863;DHT22;20158;51.436;-2.742;2023-04-15T14:26:47;21.30;42.00
33863;DHT22;20158;51.436;-2.742;2023-04-15T14:29:14;21.40;41.90
33863;DHT22;20158;51.436;-2.742;2023-04-15T14:31:40;21.50;41.90
33863;DHT22;20158;51.436;-2.742;2023-04-15T14:34:06;21.50;41.70
33863;DHT22;20158;51.436;-2.742;2023-04-15T14:36:32;21.60;41.80
33863;DHT22;20158;51.436;-2.742;2023-04-15T14:38:58;21.60;41.70
33863;DHT22;20158;51.436;-2.742;2023-04-15T14:41:24;21.70;41.60
33863;DHT22;20158;51.436;-2.742;2023-04-15T14:43:50;21.70;41.40
33863;DHT22;20158;51.436;-2.742;2023-04-15T14:46:16;21.80;41.40
33863;DHT22;20158;51.436;-2.742;2023-04-15T14:48:42;21.80;41.30
33863;DHT22;20158;51.436;-2.742;2023-04-15T14:51:08;21.80;41.20
33863;DHT22;20158;51.436;-2.742;2023-04-15T14:53:34;21.90;41.30
33863;DHT22;20158;51.436;-2.742;2023-04-15T14:56:00;21.90;41.20
33863;DHT22;20158;51.436;-2.742;2023-04-15T14:58:26;21.90;41.00
33863;DHT22;20158;51.436;-2.742;2023-04-15T15:00:52;21.80;40.70
33863;DHT22;20158;51.436;-2.742;2023-04-15T15:03:18;21.80;40.60
33863;DHT22;20158;51.436;-2.742;2023-04-15T15:05:45;21.70;40.50
33863;DHT22;20158;51.436;-2.742;2023-04-15T15:08:12;21.70;40.50
33863;DHT22;20158;51.436;-2.742;2023-04-15T15:10:39;21.70;40.60
33863;DHT22;20158;51.436;-2.742;2023-04-15T15:13:06;21.80;40.80
33863;DHT22;20158;51.436;-2.742;2023-04-15T15:15:33;21.90;41.00
33863;DHT22;20158;51.436;-2.742;2023-04-15T15:18:00;22.00;41.20
33863;DHT22;20158;51.436;-2.742;2023-04-15T15:20:26;22.10;41.40
33863;DHT22;20158;51.436;-2.742;2023-04-15T15:22:52;22.30;41.70
33863;DHT22;20158;51.436;-2.742;2023-04-15T15:25:18;22.60;41.90
33863;DHT22;20158;51.436;-2.742;2023-04-15T15:27:44;23.20;42.30
33863;DHT22;20158;51.436;-2.742;2023-04-15T15:30:11;23.90;42.40
33863;DHT22;20158;51.436;-2.742;2023-04-15T15:32:39;24.90;42.70
33863;DHT22;20158;51.436;-2.742;2023-04-15T15:35:05;25.90;41.70
33863;DHT22;20158;51.436;-2.742;2023-04-15T15:37:32;26.80;40.50
33863;DHT22;20158;51.436;-2.742;2023-04-15T15:39:58;27.50;39.40
33863;DHT22;20158;51.436;-2.742;2023-04-15T15:42:25;27.90;38.50
33863;DHT22;20158;51.436;-2.742;2023-04-15T15:44:52;28.20;38.00
33863;DHT22;20158;51.436;-2.742;2023-04-15T15:47:19;28.30;37.70
33863;DHT22;20158;51.436;-2.742;2023-04-15T15:49:46;28.30;37.70